Terminal Aerodrome Forecast
Issued by NWS

Home | Current Version | Previous Version | Text Only | Print | Product List | Glossary On
Versions: 1 2 3 4 5 6 7 8 9 10 11 12 13 14 15
000
FTUS43 KMQT 272321
TAFCMX
TAF
KCMX 272321Z 2800/2824 27014G24KT 2SM -SHSN OVC012
     FM280100 27014G24KT 3SM -SHSN OVC015
     FM280500 27012G21KT 4SM -SHSN OVC020
     FM281000 27013G20KT 6SM -SHSN OVC020
     FM281800 27015G26KT P6SM BKN025
     FM282100 27015G24KT P6SM BKN035
     FM282300 28012G21KT P6SM SCT070=

USA.gov is the U.S. government's official web portal to all federal, state and local government web resources and services.